createdAt,value
2023-04-07T00:01:01.492Z,9.36
2023-04-07T00:07:57.585Z,9.39
2023-04-07T00:13:21.014Z,9.14
2023-04-07T00:14:49.052Z,9.21
2023-04-07T00:18:21.043Z,9.14
2023-04-07T00:20:11.805Z,9.14
2023-04-07T00:25:26.430Z,9.44
2023-04-07T00:31:57.135Z,9.39
2023-04-07T00:36:43.169Z,9.36
2023-04-07T00:38:46.944Z,9.36
2023-04-07T00:40:18.098Z,9.28
2023-04-07T00:41:46.669Z,9.36
2023-04-07T00:49:16.223Z,9.34
2023-04-07T00:52:08.607Z,9.36
2023-04-07T00:53:36.988Z,9.46
2023-04-07T00:55:08.840Z,9.28
2023-04-07T00:59:02.530Z,9.34
2023-04-07T01:00:32.202Z,9.46
2023-04-07T01:02:51.013Z,9.46
2023-04-07T01:04:22.756Z,9.28
2023-04-07T01:13:04.868Z,9.40
2023-04-07T01:14:53.919Z,9.41
2023-04-07T01:17:43.314Z,9.40
2023-04-07T01:19:35.570Z,9.50
2023-04-07T01:20:44.073Z,9.46
2023-04-07T01:25:01.552Z,9.36
2023-04-07T01:30:09.498Z,9.39
2023-04-07T01:33:48.322Z,9.36
2023-04-07T01:35:17.304Z,9.39
2023-04-07T01:39:51.176Z,9.43
2023-04-07T01:41:24.400Z,9.48
2023-04-07T01:45:58.826Z,9.34
2023-04-07T01:48:51.691Z,9.29
2023-04-07T01:55:00.700Z,9.32
2023-04-07T01:56:00.678Z,9.40
2023-04-07T01:57:00.664Z,9.41
2023-04-07T01:59:05.173Z,9.48
2023-04-07T02:00:37.172Z,9.51
2023-04-07T02:06:12.192Z,9.56
2023-04-07T02:10:33.775Z,9.39
2023-04-07T02:15:23.409Z,9.47
2023-04-07T02:17:25.090Z,9.41
2023-04-07T02:18:56.393Z,9.51
2023-04-07T02:32:40.428Z,9.46
2023-04-07T02:39:08.617Z,9.46
2023-04-07T02:48:03.572Z,9.48
2023-04-07T02:51:55.422Z,9.55
2023-04-07T03:06:13.598Z,9.66
2023-04-07T03:08:18.828Z,9.72
2023-04-07T03:13:16.246Z,9.73
2023-04-07T03:15:35.897Z,9.77
2023-04-07T03:17:04.163Z,9.80
2023-04-07T03:19:23.969Z,9.83
2023-04-07T03:21:14.632Z,9.79
2023-04-07T03:23:48.058Z,9.80
2023-04-07T03:27:37.343Z,9.79
2023-04-07T03:30:10.100Z,9.83
2023-04-07T03:33:32.298Z,9.79
2023-04-07T03:36:06.103Z,9.72
2023-04-07T03:40:11.989Z,9.62
2023-04-07T03:42:31.515Z,9.74
2023-04-07T03:44:20.212Z,9.77
2023-04-07T03:47:55.720Z,9.82
2023-04-07T03:51:07.748Z,9.74
2023-04-07T04:00:41.085Z,9.69
2023-04-07T04:03:12.526Z,9.76
2023-04-07T04:08:13.221Z,9.80
2023-04-07T04:10:51.284Z,9.79
2023-04-07T04:14:10.076Z,9.80
2023-04-07T04:20:11.157Z,9.73
2023-04-07T04:22:12.883Z,9.76
2023-04-07T04:23:42.786Z,9.79
2023-04-07T04:27:46.065Z,9.82
2023-04-07T04:29:34.719Z,9.83
2023-04-07T04:31:05.181Z,9.84
2023-04-07T04:34:34.535Z,9.79
2023-04-07T04:36:07.023Z,9.80
2023-04-07T04:38:51.560Z,9.83
2023-04-07T04:41:39.413Z,9.87
2023-04-07T04:43:28.560Z,9.92
2023-04-07T04:44:57.513Z,9.92
2023-04-07T04:51:45.270Z,9.84
2023-04-07T04:58:09.690Z,9.89
2023-04-07T05:00:29.446Z,9.91
2023-04-07T05:02:01.399Z,9.92
2023-04-07T05:06:26.154Z,9.92
2023-04-07T05:12:22.513Z,9.79
2023-04-07T05:14:21.857Z,9.76
2023-04-07T05:16:51.766Z,9.74
2023-04-07T05:18:53.593Z,9.79
2023-04-07T05:20:40.845Z,9.82
2023-04-07T05:23:00.922Z,9.79
2023-04-07T05:24:51.839Z,9.74
2023-04-07T05:29:39.136Z,9.64
2023-04-07T05:32:00.767Z,9.56
2023-04-07T05:33:31.089Z,9.51
2023-04-07T05:35:31.895Z,9.58
2023-04-07T05:38:59.730Z,9.59
2023-04-07T05:44:45.606Z,9.64
2023-04-07T05:52:52.789Z,9.72
2023-04-07T05:54:22.962Z,9.79
2023-04-07T05:57:50.915Z,9.87
2023-04-07T06:06:39.094Z,9.89
2023-04-07T06:09:37.074Z,9.98
2023-04-07T06:13:00.773Z,10.02
2023-04-07T06:16:07.951Z,10.10
2023-04-07T06:17:37.118Z,10.10
2023-04-07T06:19:06.967Z,10.12
2023-04-07T06:22:21.746Z,10.05
2023-04-07T06:24:21.464Z,10.07
2023-04-07T06:33:03.379Z,10.17
2023-04-07T06:35:33.315Z,10.16
2023-04-07T06:38:15.235Z,10.20
2023-04-07T06:41:05.753Z,10.25
2023-04-07T06:47:40.379Z,10.25
2023-04-07T06:51:33.723Z,10.38
2023-04-07T06:58:12.347Z,10.31
2023-04-07T07:01:21.546Z,10.16
2023-04-07T07:03:49.490Z,10.20
2023-04-07T07:09:31.956Z,10.34
2023-04-07T07:11:02.576Z,10.35
2023-04-07T07:12:29.869Z,10.34
2023-04-07T07:20:46.928Z,10.46
2023-04-07T07:22:48.339Z,10.48
2023-04-07T07:24:16.199Z,10.56
2023-04-07T07:26:14.408Z,10.53
2023-04-07T07:28:13.587Z,10.46
2023-04-07T07:31:31.722Z,10.59
2023-04-07T07:41:33.832Z,10.71
2023-04-07T07:43:33.538Z,10.71
2023-04-07T07:45:49.704Z,10.79
2023-04-07T07:47:22.298Z,10.86
2023-04-07T07:48:51.828Z,10.96
2023-04-07T07:50:20.574Z,11.00
2023-04-07T07:54:30.301Z,11.00
2023-04-07T07:56:26.045Z,10.97
2023-04-07T07:59:16.695Z,11.05
2023-04-07T08:01:34.433Z,11.02
2023-04-07T08:05:08.120Z,10.97
2023-04-07T08:10:02.520Z,10.79
2023-04-07T08:14:40.392Z,10.84
2023-04-07T08:16:08.517Z,10.86
2023-04-07T08:19:57.569Z,10.84
2023-04-07T08:21:28.448Z,10.78
2023-04-07T08:22:26.480Z,10.79
2023-04-07T08:23:26.535Z,10.84
2023-04-07T08:24:56.498Z,10.81
2023-04-07T08:26:26.409Z,10.82
2023-04-07T08:28:44.393Z,10.89
2023-04-07T08:31:43.510Z,10.84
2023-04-07T08:34:01.909Z,10.89
2023-04-07T08:39:16.691Z,10.96
2023-04-07T08:40:48.595Z,10.84
2023-04-07T08:42:16.543Z,10.87
2023-04-07T08:44:09.406Z,11.00
2023-04-07T08:45:39.293Z,11.00
2023-04-07T08:47:39.560Z,11.08
2023-04-07T08:49:09.356Z,11.12
2023-04-07T08:50:40.972Z,11.17
2023-04-07T08:53:36.979Z,11.17
2023-04-07T08:55:25.654Z,11.11
2023-04-07T08:59:16.363Z,11.11
2023-04-07T09:02:11.932Z,11.29
2023-04-07T09:06:48.926Z,11.40
2023-04-07T09:08:18.996Z,11.45
2023-04-07T09:11:50.341Z,11.57
2023-04-07T09:14:15.647Z,11.45
2023-04-07T09:16:14.506Z,11.51
2023-04-07T09:18:13.624Z,11.60
2023-04-07T09:19:45.293Z,11.69
2023-04-07T09:22:42.277Z,11.72
2023-04-07T09:29:59.664Z,11.66
2023-04-07T09:34:52.136Z,11.54
2023-04-07T09:40:16.782Z,11.52
2023-04-07T09:41:44.884Z,11.57
2023-04-07T09:43:15.131Z,11.50
2023-04-07T09:45:27.222Z,11.41
2023-04-07T09:46:49.132Z,11.43
2023-04-07T09:55:58.602Z,11.73
2023-04-07T09:59:37.991Z,11.77
2023-04-07T10:03:24.658Z,11.88
2023-04-07T10:05:54.813Z,11.87
2023-04-07T10:07:54.650Z,11.84
2023-04-07T10:12:05.944Z,11.91
2023-04-07T10:14:05.920Z,11.84
2023-04-07T10:16:03.176Z,11.78
2023-04-07T10:18:02.551Z,11.83
2023-04-07T10:20:44.501Z,11.81
2023-04-07T10:23:12.437Z,11.75
2023-04-07T10:26:32.233Z,11.86
2023-04-07T10:29:04.649Z,11.97
2023-04-07T10:35:16.002Z,11.86
2023-04-07T10:37:21.602Z,11.86
2023-04-07T10:39:09.176Z,11.87
2023-04-07T10:40:10.970Z,11.90
2023-04-07T10:41:09.154Z,11.91
2023-04-07T10:42:09.138Z,11.94
2023-04-07T10:47:21.886Z,11.72
2023-04-07T10:48:50.853Z,11.68
2023-04-07T10:52:19.421Z,11.69
2023-04-07T10:57:39.180Z,11.80
2023-04-07T10:59:08.625Z,11.78
2023-04-07T11:00:37.554Z,11.78
2023-04-07T11:07:20.476Z,11.57
2023-04-07T11:11:13.609Z,11.51
2023-04-07T11:14:05.285Z,11.48
2023-04-07T11:15:37.874Z,11.47
2023-04-07T11:17:05.020Z,11.59
2023-04-07T11:18:05.374Z,11.66
2023-04-07T11:22:53.235Z,11.66
2023-04-07T11:26:13.700Z,11.60
2023-04-07T11:28:08.784Z,11.66
2023-04-07T11:29:38.127Z,11.65
2023-04-07T11:31:55.708Z,11.70
2023-04-07T11:33:25.167Z,11.77
2023-04-07T11:35:44.199Z,11.77
2023-04-07T11:38:19.566Z,11.81
2023-04-07T11:40:12.753Z,11.80
2023-04-07T11:42:03.189Z,11.75
2023-04-07T11:45:19.627Z,11.77
2023-04-07T11:50:26.816Z,11.70
2023-04-07T11:53:46.085Z,11.75
2023-04-07T11:56:45.789Z,11.88
2023-04-07T11:58:15.942Z,11.99
2023-04-07T12:01:08.583Z,12.02
2023-04-07T12:03:56.861Z,12.13
2023-04-07T12:09:34.267Z,11.80
2023-04-07T12:14:59.186Z,11.99
2023-04-07T12:21:52.984Z,12.03
2023-04-07T12:27:35.892Z,12.18
2023-04-07T12:28:55.066Z,12.24
2023-04-07T12:30:42.631Z,12.31
2023-04-07T12:32:50.989Z,12.45
2023-04-07T12:35:29.892Z,12.61
2023-04-07T12:38:19.159Z,12.62
2023-04-07T12:40:39.262Z,12.35
2023-04-07T12:42:15.040Z,12.49
2023-04-07T12:47:14.353Z,12.43
2023-04-07T12:48:46.043Z,12.17
2023-04-07T12:50:17.977Z,12.28
2023-04-07T12:52:37.710Z,12.21
2023-04-07T12:55:50.517Z,12.20
2023-04-07T12:58:45.183Z,12.17
2023-04-07T13:00:14.112Z,12.20
2023-04-07T13:03:12.603Z,12.18
2023-04-07T13:05:39.309Z,12.18
2023-04-07T13:10:37.304Z,12.36
2023-04-07T13:12:55.498Z,12.53
2023-04-07T13:15:47.053Z,12.73
2023-04-07T13:20:00.283Z,12.90
2023-04-07T13:24:29.359Z,13.05
2023-04-07T13:26:50.870Z,13.03
2023-04-07T13:28:19.360Z,13.01
2023-04-07T13:29:48.726Z,12.94
2023-04-07T13:32:38.201Z,12.83
2023-04-07T13:40:00.378Z,13.01
2023-04-07T13:41:29.593Z,13.03
2023-04-07T13:48:55.659Z,13.00
2023-04-07T13:52:13.219Z,13.04
2023-04-07T13:53:42.160Z,13.16
2023-04-07T13:54:42.218Z,13.19
2023-04-07T13:55:42.116Z,13.20
2023-04-07T13:57:12.022Z,13.18
2023-04-07T14:07:02.435Z,13.38
2023-04-07T14:09:59.495Z,13.13
2023-04-07T14:14:14.395Z,13.12
2023-04-07T14:20:29.683Z,12.83
2023-04-07T14:26:37.572Z,12.78
2023-04-07T14:28:06.180Z,12.64
2023-04-07T14:30:24.044Z,12.78
2023-04-07T14:33:14.130Z,12.64
2023-04-07T14:41:33.899Z,12.87
2023-04-07T14:43:32.730Z,12.75
2023-04-07T14:46:00.626Z,12.87
2023-04-07T14:50:51.771Z,13.01
2023-04-07T14:52:19.537Z,13.08
2023-04-07T14:57:17.609Z,13.15
2023-04-07T14:58:46.588Z,13.16
2023-04-07T15:03:46.398Z,13.20
2023-04-07T15:06:15.456Z,13.30
2023-04-07T15:09:12.697Z,13.38
2023-04-07T15:15:08.926Z,13.28
2023-04-07T15:16:39.468Z,13.37
2023-04-07T15:19:56.644Z,13.28
2023-04-07T15:21:25.775Z,13.09
2023-04-07T15:23:24.589Z,13.15
2023-04-07T15:25:53.348Z,12.95
2023-04-07T15:28:51.168Z,12.98
2023-04-07T15:36:25.798Z,13.04
2023-04-07T15:37:53.663Z,13.00
2023-04-07T15:39:22.588Z,12.86
2023-04-07T15:42:22.627Z,12.57
2023-04-07T15:46:38.181Z,12.79
2023-04-07T15:48:07.111Z,12.85
2023-04-07T15:49:36.036Z,12.85
2023-04-07T15:50:35.969Z,12.98
2023-04-07T15:51:35.949Z,13.01
2023-04-07T15:53:06.023Z,12.95
2023-04-07T15:55:35.876Z,12.90
2023-04-07T15:57:04.839Z,12.98
2023-04-07T15:59:36.535Z,13.04
2023-04-07T16:02:50.729Z,12.95
2023-04-07T16:04:19.723Z,12.87
2023-04-07T16:07:15.356Z,13.01
2023-04-07T16:11:13.749Z,13.12
2023-04-07T16:13:12.177Z,13.23
2023-04-07T16:16:59.918Z,13.28
2023-04-07T16:18:28.156Z,13.42
2023-04-07T16:20:18.809Z,13.39
2023-04-07T16:24:44.216Z,13.47
2023-04-07T16:27:14.627Z,13.54
2023-04-07T16:29:13.951Z,13.57
2023-04-07T16:31:06.828Z,13.59
2023-04-07T16:33:05.658Z,13.60
2023-04-07T16:35:34.928Z,13.65
2023-04-07T16:37:25.801Z,13.65
2023-04-07T16:38:34.920Z,13.67
2023-04-07T16:41:03.282Z,13.65
2023-04-07T16:44:27.457Z,13.63
2023-04-07T16:48:13.113Z,13.60
2023-04-07T16:51:00.811Z,13.60
2023-04-07T16:54:19.420Z,13.60
2023-04-07T16:55:50.854Z,13.59
2023-04-07T16:57:18.355Z,13.59
2023-04-07T17:00:15.984Z,13.57
2023-04-07T17:01:45.917Z,13.57
2023-04-07T17:05:07.743Z,13.56
2023-04-07T17:06:41.775Z,13.56
2023-04-07T17:08:31.287Z,13.54
2023-04-07T17:10:33.286Z,13.53
2023-04-07T17:13:23.691Z,13.52
2023-04-07T17:19:31.086Z,13.49
2023-04-07T17:22:08.967Z,13.50
2023-04-07T17:23:40.781Z,13.52
2023-04-07T17:25:59.945Z,13.49
2023-04-07T17:27:28.901Z,13.47
2023-04-07T17:31:34.830Z,13.44
2023-04-07T17:33:38.040Z,13.42
2023-04-07T17:35:08.194Z,13.41
2023-04-07T17:36:39.017Z,13.39
2023-04-07T17:39:07.556Z,13.35
2023-04-07T17:40:36.156Z,13.33
2023-04-07T17:46:25.750Z,13.19
2023-04-07T17:50:14.120Z,13.12
2023-04-07T17:53:45.334Z,13.03
2023-04-07T17:55:32.254Z,12.98
2023-04-07T18:01:59.849Z,12.83
2023-04-07T18:04:50.056Z,12.75
2023-04-07T18:07:10.599Z,12.67
2023-04-07T18:08:40.941Z,12.65
2023-04-07T18:10:09.207Z,12.65
2023-04-07T18:13:09.638Z,12.55
2023-04-07T18:18:03.615Z,12.37
2023-04-07T18:20:34.581Z,12.29
2023-04-07T18:22:24.071Z,12.25
2023-04-07T18:23:53.832Z,12.21
2023-04-07T18:25:43.533Z,12.18
2023-04-07T18:32:33.124Z,12.02
2023-04-07T18:34:02.371Z,11.97
2023-04-07T18:36:01.325Z,11.90
2023-04-07T18:37:51.204Z,11.86
2023-04-07T18:39:20.059Z,11.84
2023-04-07T18:40:51.381Z,11.81
2023-04-07T18:42:09.974Z,11.78
2023-04-07T18:42:48.906Z,11.75
2023-04-07T18:43:49.162Z,11.73
2023-04-07T18:45:19.873Z,11.68
2023-04-07T18:47:19.627Z,11.66
2023-04-07T18:48:48.127Z,11.62
2023-04-07T18:50:48.995Z,11.55
2023-04-07T18:54:16.573Z,11.48
2023-04-07T19:00:56.740Z,11.33
2023-04-07T19:03:26.466Z,11.29
2023-04-07T19:06:34.408Z,11.23
2023-04-07T19:09:32.124Z,11.18
2023-04-07T19:13:49.363Z,11.10
2023-04-07T19:16:19.151Z,11.04
2023-04-07T19:18:50.901Z,10.97
2023-04-07T19:21:39.634Z,10.93
2023-04-07T19:24:26.698Z,10.87
2023-04-07T19:30:02.985Z,10.71
2023-04-07T19:32:52.200Z,10.64
2023-04-07T19:34:52.571Z,10.60
2023-04-07T19:39:28.846Z,10.46
2023-04-07T19:41:58.942Z,10.40
2023-04-07T19:44:17.794Z,10.34
2023-04-07T19:45:46.728Z,10.30
2023-04-07T19:48:43.566Z,10.22
2023-04-07T19:51:08.659Z,10.10
2023-04-07T20:00:06.278Z,9.86
2023-04-07T20:04:50.706Z,9.74
2023-04-07T20:06:17.758Z,9.73
2023-04-07T20:09:15.022Z,9.66
2023-04-07T20:10:44.356Z,9.62
2023-04-07T20:15:49.839Z,9.48
2023-04-07T20:17:15.957Z,9.46
2023-04-07T20:19:17.769Z,9.40
2023-04-07T20:21:49.510Z,9.36
2023-04-07T20:23:52.561Z,9.29
2023-04-07T20:26:51.580Z,9.26
2023-04-07T20:28:21.434Z,9.23
2023-04-07T20:30:33.428Z,9.19
2023-04-07T20:46:35.751Z,8.84
2023-04-07T20:48:05.684Z,8.82
2023-04-07T20:49:35.627Z,8.79
2023-04-07T20:53:29.521Z,8.71
2023-04-07T20:55:27.090Z,8.69
2023-04-07T20:57:28.535Z,8.67
2023-04-07T20:59:17.787Z,8.66
2023-04-07T21:00:46.846Z,8.66
2023-04-07T21:02:18.701Z,8.61
2023-04-07T21:08:27.567Z,8.49
2023-04-07T21:09:56.954Z,8.46
2023-04-07T21:12:25.884Z,8.44
2023-04-07T21:14:23.818Z,8.38
2023-04-07T21:16:12.519Z,8.37
2023-04-07T21:17:42.055Z,8.34
2023-04-07T21:19:11.576Z,8.34
2023-04-07T21:20:40.375Z,8.33
2023-04-07T21:24:27.877Z,8.24
2023-04-07T21:25:57.794Z,8.20
2023-04-07T21:26:57.779Z,8.20
2023-04-07T21:27:57.768Z,8.19
2023-04-07T21:28:57.812Z,8.19
2023-04-07T21:36:33.924Z,8.03
2023-04-07T21:40:03.446Z,7.95
2023-04-07T21:42:26.046Z,7.90
2023-04-07T21:43:54.910Z,7.87
2023-04-07T21:49:14.649Z,7.77
2023-04-07T21:53:00.492Z,7.70
2023-04-07T21:54:30.469Z,7.67
2023-04-07T21:57:18.297Z,7.66
2023-04-07T22:00:38.620Z,7.58
2023-04-07T22:03:47.179Z,7.54
2023-04-07T22:05:16.493Z,7.54
2023-04-07T22:07:14.083Z,7.51
2023-04-07T22:11:33.775Z,7.42
2023-04-07T22:13:03.728Z,7.42
2023-04-07T22:16:02.067Z,7.39
2023-04-07T22:20:39.338Z,7.33
2023-04-07T22:22:09.212Z,7.33
2023-04-07T22:23:38.063Z,7.32
2023-04-07T22:25:37.941Z,7.28
2023-04-07T22:27:07.378Z,7.25
2023-04-07T22:33:13.228Z,7.17
2023-04-07T22:36:10.847Z,7.17
2023-04-07T22:37:40.801Z,7.18
2023-04-07T22:40:11.779Z,7.21
2023-04-07T22:42:10.353Z,7.18
2023-04-07T22:48:20.719Z,7.21
2023-04-07T22:51:18.757Z,7.20
2023-04-07T22:56:05.821Z,7.33
2023-04-07T23:02:12.011Z,7.40
2023-04-07T23:06:41.191Z,7.58
2023-04-07T23:10:57.470Z,7.77
2023-04-07T23:12:25.567Z,7.82
2023-04-07T23:15:53.849Z,7.79
2023-04-07T23:22:38.046Z,7.88
2023-04-07T23:24:57.810Z,7.94
2023-04-07T23:30:14.572Z,7.85
2023-04-07T23:32:15.420Z,7.90
2023-04-07T23:33:45.436Z,7.93
2023-04-07T23:36:42.696Z,7.83
2023-04-07T23:38:12.707Z,7.79
2023-04-07T23:41:04.443Z,7.75
2023-04-07T23:44:40.710Z,7.82
2023-04-07T23:48:30.286Z,7.73
2023-04-07T23:50:04.716Z,7.79
2023-04-07T23:52:02.690Z,7.79
